sensor_id;sensor_type;location;lat;lon;timestamp;temperature;humidity
64689;DHT22;62504;46.070;14.492;2024-03-25T00:01:30;5.60;99.90
64689;DHT22;62504;46.070;14.492;2024-03-25T00:03:56;5.60;99.90
64689;DHT22;62504;46.070;14.492;2024-03-25T00:06:22;5.60;99.90
64689;DHT22;62504;46.070;14.492;2024-03-25T00:08:47;5.50;99.90
64689;DHT22;62504;46.070;14.492;2024-03-25T00:11:13;5.50;99.90
64689;DHT22;62504;46.070;14.492;2024-03-25T00:13:38;5.60;99.90
64689;DHT22;62504;46.070;14.492;2024-03-25T00:16:05;5.70;99.90
64689;DHT22;62504;46.070;14.492;2024-03-25T00:18:32;5.70;99.90
64689;DHT22;62504;46.070;14.492;2024-03-25T00:20:58;5.70;99.90
64689;DHT22;62504;46.070;14.492;2024-03-25T00:23:23;5.50;99.90
64689;DHT22;62504;46.070;14.492;2024-03-25T00:25:49;5.60;99.90
64689;DHT22;62504;46.070;14.492;2024-03-25T00:28:15;5.50;99.90
64689;DHT22;62504;46.070;14.492;2024-03-25T00:30:41;5.50;99.90
64689;DHT22;62504;46.070;14.492;2024-03-25T00:33:06;5.40;99.90
64689;DHT22;62504;46.070;14.492;2024-03-25T00:35:33;5.50;99.90
64689;DHT22;62504;46.070;14.492;2024-03-25T00:37:59;5.40;99.90
64689;DHT22;62504;46.070;14.492;2024-03-25T00:40:25;5.50;99.90
64689;DHT22;62504;46.070;14.492;2024-03-25T00:42:50;5.60;99.90
64689;DHT22;62504;46.070;14.492;2024-03-25T00:45:16;5.50;99.90
64689;DHT22;62504;46.070;14.492;2024-03-25T00:47:42;5.50;99.90
64689;DHT22;62504;46.070;14.492;2024-03-25T00:50:08;5.50;99.90
64689;DHT22;62504;46.070;14.492;2024-03-25T00:52:34;5.40;99.90
64689;DHT22;62504;46.070;14.492;2024-03-25T00:55:00;5.40;99.90
64689;DHT22;62504;46.070;14.492;2024-03-25T00:57:26;5.40;99.90
64689;DHT22;62504;46.070;14.492;2024-03-25T00:59:52;5.30;99.90
64689;DHT22;62504;46.070;14.492;2024-03-25T01:02:18;5.40;99.90
64689;DHT22;62504;46.070;14.492;2024-03-25T01:04:43;5.30;99.90
64689;DHT22;62504;46.070;14.492;2024-03-25T01:07:09;5.30;99.90
64689;DHT22;62504;46.070;14.492;2024-03-25T01:09:35;5.30;99.90
64689;DHT22;62504;46.070;14.492;2024-03-25T01:12:01;5.20;99.90
64689;DHT22;62504;46.070;14.492;2024-03-25T01:14:26;5.20;99.90
64689;DHT22;62504;46.070;14.492;2024-03-25T01:16:52;5.10;99.90
64689;DHT22;62504;46.070;14.492;2024-03-25T01:19:18;5.10;99.90
64689;DHT22;62504;46.070;14.492;2024-03-25T01:21:44;5.10;99.90
64689;DHT22;62504;46.070;14.492;2024-03-25T01:24:10;5.10;99.90
64689;DHT22;62504;46.070;14.492;2024-03-25T01:26:35;5.00;99.90
64689;DHT22;62504;46.070;14.492;2024-03-25T01:29:02;5.10;99.90
64689;DHT22;62504;46.070;14.492;2024-03-25T01:31:27;5.00;99.90
64689;DHT22;62504;46.070;14.492;2024-03-25T01:33:53;4.90;99.90
64689;DHT22;62504;46.070;14.492;2024-03-25T01:36:19;4.80;99.90
64689;DHT22;62504;46.070;14.492;2024-03-25T01:38:45;4.80;99.90
64689;DHT22;62504;46.070;14.492;2024-03-25T01:41:12;4.70;99.90
64689;DHT22;62504;46.070;14.492;2024-03-25T01:43:38;4.80;99.90
64689;DHT22;62504;46.070;14.492;2024-03-25T01:46:04;4.80;99.90
64689;DHT22;62504;46.070;14.492;2024-03-25T01:48:31;5.00;99.90
64689;DHT22;62504;46.070;14.492;2024-03-25T01:50:57;4.90;99.90
64689;DHT22;62504;46.070;14.492;2024-03-25T01:53:24;4.70;99.90
64689;DHT22;62504;46.070;14.492;2024-03-25T01:55:52;4.70;99.90
64689;DHT22;62504;46.070;14.492;2024-03-25T01:58:20;4.80;99.90
64689;DHT22;62504;46.070;14.492;2024-03-25T02:00:47;4.80;99.90
64689;DHT22;62504;46.070;14.492;2024-03-25T02:03:13;4.70;99.90
64689;DHT22;62504;46.070;14.492;2024-03-25T02:05:39;4.80;99.90
64689;DHT22;62504;46.070;14.492;2024-03-25T02:08:06;4.60;99.90
64689;DHT22;62504;46.070;14.492;2024-03-25T02:10:32;4.60;99.90
64689;DHT22;62504;46.070;14.492;2024-03-25T02:12:58;4.90;99.90
64689;DHT22;62504;46.070;14.492;2024-03-25T02:15:24;4.90;99.90
64689;DHT22;62504;46.070;14.492;2024-03-25T02:17:52;4.70;99.90
64689;DHT22;62504;46.070;14.492;2024-03-25T02:20:18;4.70;99.90
64689;DHT22;62504;46.070;14.492;2024-03-25T02:22:44;4.60;99.90
64689;DHT22;62504;46.070;14.492;2024-03-25T02:25:10;4.60;99.90
64689;DHT22;62504;46.070;14.492;2024-03-25T02:27:39;4.60;99.90
64689;DHT22;62504;46.070;14.492;2024-03-25T02:30:07;4.70;99.90
64689;DHT22;62504;46.070;14.492;2024-03-25T02:32:34;4.60;99.90
64689;DHT22;62504;46.070;14.492;2024-03-25T02:35:02;4.50;99.90
64689;DHT22;62504;46.070;14.492;2024-03-25T02:37:29;4.60;99.90
64689;DHT22;62504;46.070;14.492;2024-03-25T02:39:57;4.40;99.90
64689;DHT22;62504;46.070;14.492;2024-03-25T02:42:27;4.40;99.90
64689;DHT22;62504;46.070;14.492;2024-03-25T02:44:54;4.50;99.90
64689;DHT22;62504;46.070;14.492;2024-03-25T02:47:20;4.50;99.90
64689;DHT22;62504;46.070;14.492;2024-03-25T02:49:46;4.60;99.90
64689;DHT22;62504;46.070;14.492;2024-03-25T02:52:12;4.40;99.90
64689;DHT22;62504;46.070;14.492;2024-03-25T02:54:37;4.60;99.90
64689;DHT22;62504;46.070;14.492;2024-03-25T02:57:03;4.50;99.90
64689;DHT22;62504;46.070;14.492;2024-03-25T02:59:29;4.40;99.90
64689;DHT22;62504;46.070;14.492;2024-03-25T03:01:54;4.40;99.90
64689;DHT22;62504;46.070;14.492;2024-03-25T03:04:20;4.30;99.90
64689;DHT22;62504;46.070;14.492;2024-03-25T03:06:46;4.30;99.90
64689;DHT22;62504;46.070;14.492;2024-03-25T03:09:11;4.30;99.90
64689;DHT22;62504;46.070;14.492;2024-03-25T03:11:37;4.30;99.90
64689;DHT22;62504;46.070;14.492;2024-03-25T03:14:03;4.30;99.90
64689;DHT22;62504;46.070;14.492;2024-03-25T03:16:29;4.40;99.90
64689;DHT22;62504;46.070;14.492;2024-03-25T03:18:55;4.30;99.90
64689;DHT22;62504;46.070;14.492;2024-03-25T03:21:20;4.20;99.90
64689;DHT22;62504;46.070;14.492;2024-03-25T03:23:46;4.10;99.90
64689;DHT22;62504;46.070;14.492;2024-03-25T03:26:12;4.10;99.90
64689;DHT22;62504;46.070;14.492;2024-03-25T03:28:39;4.00;99.90
64689;DHT22;62504;46.070;14.492;2024-03-25T03:31:05;4.00;99.90
64689;DHT22;62504;46.070;14.492;2024-03-25T03:33:31;4.10;99.90
64689;DHT22;62504;46.070;14.492;2024-03-25T03:35:57;4.10;99.90
64689;DHT22;62504;46.070;14.492;2024-03-25T03:38:22;4.00;99.90
64689;DHT22;62504;46.070;14.492;2024-03-25T03:40:58;3.90;99.90
64689;DHT22;62504;46.070;14.492;2024-03-25T03:43:24;4.00;99.90
64689;DHT22;62504;46.070;14.492;2024-03-25T03:45:50;4.00;99.90
64689;DHT22;62504;46.070;14.492;2024-03-25T03:48:16;4.00;99.90
64689;DHT22;62504;46.070;14.492;2024-03-25T03:50:42;3.90;99.90
64689;DHT22;62504;46.070;14.492;2024-03-25T03:53:08;4.00;99.90
64689;DHT22;62504;46.070;14.492;2024-03-25T03:55:33;4.00;99.90
64689;DHT22;62504;46.070;14.492;2024-03-25T03:57:59;4.00;99.90
64689;DHT22;62504;46.070;14.492;2024-03-25T04:00:24;3.90;99.90
64689;DHT22;62504;46.070;14.492;2024-03-25T04:02:50;3.80;99.90
64689;DHT22;62504;46.070;14.492;2024-03-25T04:05:16;3.90;99.90
64689;DHT22;62504;46.070;14.492;2024-03-25T04:07:42;4.00;99.90
64689;DHT22;62504;46.070;14.492;2024-03-25T04:10:08;4.00;99.90
64689;DHT22;62504;46.070;14.492;2024-03-25T04:12:34;4.00;99.90
64689;DHT22;62504;46.070;14.492;2024-03-25T04:15:03;4.00;99.90
64689;DHT22;62504;46.070;14.492;2024-03-25T04:17:29;3.90;99.90
64689;DHT22;62504;46.070;14.492;2024-03-25T04:19:54;4.10;99.90
64689;DHT22;62504;46.070;14.492;2024-03-25T04:22:20;4.20;99.90
64689;DHT22;62504;46.070;14.492;2024-03-25T04:24:46;4.00;99.90
64689;DHT22;62504;46.070;14.492;2024-03-25T04:27:11;3.90;99.90
64689;DHT22;62504;46.070;14.492;2024-03-25T04:29:37;3.90;99.90
64689;DHT22;62504;46.070;14.492;2024-03-25T04:32:03;3.70;99.90
64689;DHT22;62504;46.070;14.492;2024-03-25T04:34:29;3.70;99.90
64689;DHT22;62504;46.070;14.492;2024-03-25T04:36:58;3.90;99.90
64689;DHT22;62504;46.070;14.492;2024-03-25T04:39:23;3.70;99.90
64689;DHT22;62504;46.070;14.492;2024-03-25T04:41:49;3.70;99.90
64689;DHT22;62504;46.070;14.492;2024-03-25T04:44:14;3.70;99.90
64689;DHT22;62504;46.070;14.492;2024-03-25T04:46:40;3.60;99.90
64689;DHT22;62504;46.070;14.492;2024-03-25T04:49:06;3.60;99.90
64689;DHT22;62504;46.070;14.492;2024-03-25T04:51:32;3.60;99.90
64689;DHT22;62504;46.070;14.492;2024-03-25T04:53:57;3.60;99.90
64689;DHT22;62504;46.070;14.492;2024-03-25T04:56:23;3.60;99.90
64689;DHT22;62504;46.070;14.492;2024-03-25T04:58:49;3.60;99.90
64689;DHT22;62504;46.070;14.492;2024-03-25T05:01:15;3.50;99.90
64689;DHT22;62504;46.070;14.492;2024-03-25T05:03:40;3.60;99.90
64689;DHT22;62504;46.070;14.492;2024-03-25T05:06:06;3.50;99.90
64689;DHT22;62504;46.070;14.492;2024-03-25T05:08:34;3.60;99.90
64689;DHT22;62504;46.070;14.492;2024-03-25T05:11:00;3.60;99.90
64689;DHT22;62504;46.070;14.492;2024-03-25T05:13:26;3.60;99.90
64689;DHT22;62504;46.070;14.492;2024-03-25T05:15:52;3.70;99.90
64689;DHT22;62504;46.070;14.492;2024-03-25T05:18:18;3.70;99.90
64689;DHT22;62504;46.070;14.492;2024-03-25T05:20:44;3.80;99.90
64689;DHT22;62504;46.070;14.492;2024-03-25T05:23:10;3.60;99.90
64689;DHT22;62504;46.070;14.492;2024-03-25T05:25:36;3.70;99.90
64689;DHT22;62504;46.070;14.492;2024-03-25T05:28:02;3.70;99.90
64689;DHT22;62504;46.070;14.492;2024-03-25T05:30:28;3.80;99.90
64689;DHT22;62504;46.070;14.492;2024-03-25T05:32:53;3.80;99.90
64689;DHT22;62504;46.070;14.492;2024-03-25T05:35:19;3.80;99.90
64689;DHT22;62504;46.070;14.492;2024-03-25T05:37:44;4.00;99.90
64689;DHT22;62504;46.070;14.492;2024-03-25T05:40:11;4.10;99.90
64689;DHT22;62504;46.070;14.492;2024-03-25T05:42:40;4.00;99.90
64689;DHT22;62504;46.070;14.492;2024-03-25T05:45:05;4.10;99.90
64689;DHT22;62504;46.070;14.492;2024-03-25T05:47:32;4.20;99.90
64689;DHT22;62504;46.070;14.492;2024-03-25T05:49:57;4.30;99.90
64689;DHT22;62504;46.070;14.492;2024-03-25T05:52:23;4.40;99.90
64689;DHT22;62504;46.070;14.492;2024-03-25T05:54:49;4.30;99.90
64689;DHT22;62504;46.070;14.492;2024-03-25T05:57:14;4.30;99.90
64689;DHT22;62504;46.070;14.492;2024-03-25T05:59:40;4.50;99.90
64689;DHT22;62504;46.070;14.492;2024-03-25T06:02:05;4.40;99.90
64689;DHT22;62504;46.070;14.492;2024-03-25T06:04:31;4.80;99.90
64689;DHT22;62504;46.070;14.492;2024-03-25T06:06:57;4.90;99.90
64689;DHT22;62504;46.070;14.492;2024-03-25T06:09:22;5.30;99.90
64689;DHT22;62504;46.070;14.492;2024-03-25T06:11:48;5.90;99.90
64689;DHT22;62504;46.070;14.492;2024-03-25T06:14:13;6.90;99.90
64689;DHT22;62504;46.070;14.492;2024-03-25T06:16:39;9.10;99.90
64689;DHT22;62504;46.070;14.492;2024-03-25T06:19:04;10.80;99.90
64689;DHT22;62504;46.070;14.492;2024-03-25T06:21:30;12.00;99.90
64689;DHT22;62504;46.070;14.492;2024-03-25T06:23:56;12.60;99.90
64689;DHT22;62504;46.070;14.492;2024-03-25T06:26:21;13.50;99.90
64689;DHT22;62504;46.070;14.492;2024-03-25T06:28:47;13.40;99.90
64689;DHT22;62504;46.070;14.492;2024-03-25T06:31:13;12.20;99.90
64689;DHT22;62504;46.070;14.492;2024-03-25T06:33:57;10.70;99.90
64689;DHT22;62504;46.070;14.492;2024-03-25T06:36:45;9.80;99.90
64689;DHT22;62504;46.070;14.492;2024-03-25T06:39:12;9.40;99.90
64689;DHT22;62504;46.070;14.492;2024-03-25T06:41:37;9.10;99.90
64689;DHT22;62504;46.070;14.492;2024-03-25T06:44:03;8.80;99.90
64689;DHT22;62504;46.070;14.492;2024-03-25T06:46:30;9.20;99.90
64689;DHT22;62504;46.070;14.492;2024-03-25T06:48:56;9.20;99.90
64689;DHT22;62504;46.070;14.492;2024-03-25T06:51:21;9.00;99.90
64689;DHT22;62504;46.070;14.492;2024-03-25T06:53:47;9.10;99.90
64689;DHT22;62504;46.070;14.492;2024-03-25T06:56:13;9.00;99.90
64689;DHT22;62504;46.070;14.492;2024-03-25T06:58:38;9.50;99.90
64689;DHT22;62504;46.070;14.492;2024-03-25T07:01:06;9.50;99.90
64689;DHT22;62504;46.070;14.492;2024-03-25T07:03:33;9.20;99.90
64689;DHT22;62504;46.070;14.492;2024-03-25T07:05:59;8.80;99.90
64689;DHT22;62504;46.070;14.492;2024-03-25T07:08:26;9.00;99.90
64689;DHT22;62504;46.070;14.492;2024-03-25T07:10:52;9.00;99.90
64689;DHT22;62504;46.070;14.492;2024-03-25T07:13:18;9.20;99.90
64689;DHT22;62504;46.070;14.492;2024-03-25T07:15:44;9.60;99.90
64689;DHT22;62504;46.070;14.492;2024-03-25T07:18:10;9.40;99.90
64689;DHT22;62504;46.070;14.492;2024-03-25T07:20:39;9.50;99.90
64689;DHT22;62504;46.070;14.492;2024-03-25T07:23:05;9.50;99.90
64689;DHT22;62504;46.070;14.492;2024-03-25T07:25:31;9.50;99.90
64689;DHT22;62504;46.070;14.492;2024-03-25T07:27:57;9.80;99.90
64689;DHT22;62504;46.070;14.492;2024-03-25T07:30:23;9.70;99.90
64689;DHT22;62504;46.070;14.492;2024-03-25T07:32:53;10.10;99.90
64689;DHT22;62504;46.070;14.492;2024-03-25T07:35:18;10.50;99.90
64689;DHT22;62504;46.070;14.492;2024-03-25T07:37:44;10.00;99.90
64689;DHT22;62504;46.070;14.492;2024-03-25T07:40:10;10.30;99.90
64689;DHT22;62504;46.070;14.492;2024-03-25T07:42:37;10.20;99.90
64689;DHT22;62504;46.070;14.492;2024-03-25T07:45:03;10.20;99.90
64689;DHT22;62504;46.070;14.492;2024-03-25T07:47:30;10.30;99.90
64689;DHT22;62504;46.070;14.492;2024-03-25T07:49:56;10.00;99.90
64689;DHT22;62504;46.070;14.492;2024-03-25T07:52:21;10.30;99.90
64689;DHT22;62504;46.070;14.492;2024-03-25T07:54:47;10.10;99.90
64689;DHT22;62504;46.070;14.492;2024-03-25T07:57:13;10.60;99.90
64689;DHT22;62504;46.070;14.492;2024-03-25T07:59:38;10.50;99.90
64689;DHT22;62504;46.070;14.492;2024-03-25T08:02:04;10.30;99.90
64689;DHT22;62504;46.070;14.492;2024-03-25T08:04:30;10.90;99.90
64689;DHT22;62504;46.070;14.492;2024-03-25T08:06:56;10.70;99.90
64689;DHT22;62504;46.070;14.492;2024-03-25T08:09:22;11.10;99.90
64689;DHT22;62504;46.070;14.492;2024-03-25T08:11:47;11.10;99.90
64689;DHT22;62504;46.070;14.492;2024-03-25T08:14:13;10.80;99.90
64689;DHT22;62504;46.070;14.492;2024-03-25T08:16:39;11.30;99.90
64689;DHT22;62504;46.070;14.492;2024-03-25T08:19:05;11.30;99.90
64689;DHT22;62504;46.070;14.492;2024-03-25T08:21:31;11.10;99.90
64689;DHT22;62504;46.070;14.492;2024-03-25T08:23:57;11.10;99.90
64689;DHT22;62504;46.070;14.492;2024-03-25T08:26:22;10.80;99.90
64689;DHT22;62504;46.070;14.492;2024-03-25T08:28:48;11.20;99.90
64689;DHT22;62504;46.070;14.492;2024-03-25T08:31:16;11.60;99.90
64689;DHT22;62504;46.070;14.492;2024-03-25T08:33:42;11.80;99.90
64689;DHT22;62504;46.070;14.492;2024-03-25T08:36:08;11.50;99.90
64689;DHT22;62504;46.070;14.492;2024-03-25T08:38:34;11.10;99.90
64689;DHT22;62504;46.070;14.492;2024-03-25T08:40:59;11.20;99.90
64689;DHT22;62504;46.070;14.492;2024-03-25T08:43:25;11.70;99.90
64689;DHT22;62504;46.070;14.492;2024-03-25T08:45:50;12.00;99.90
64689;DHT22;62504;46.070;14.492;2024-03-25T08:48:18;12.20;99.90
64689;DHT22;62504;46.070;14.492;2024-03-25T08:50:44;12.40;99.90
64689;DHT22;62504;46.070;14.492;2024-03-25T08:53:10;12.40;99.90
64689;DHT22;62504;46.070;14.492;2024-03-25T08:55:35;12.50;99.90
64689;DHT22;62504;46.070;14.492;2024-03-25T08:58:01;12.70;99.90
64689;DHT22;62504;46.070;14.492;2024-03-25T09:00:27;12.80;99.90
64689;DHT22;62504;46.070;14.492;2024-03-25T09:02:53;12.30;99.90
64689;DHT22;62504;46.070;14.492;2024-03-25T09:05:20;12.00;99.90
64689;DHT22;62504;46.070;14.492;2024-03-25T09:07:46;12.20;99.90
64689;DHT22;62504;46.070;14.492;2024-03-25T09:10:15;12.30;99.90
64689;DHT22;62504;46.070;14.492;2024-03-25T09:13:00;12.80;99.90
64689;DHT22;62504;46.070;14.492;2024-03-25T09:15:25;12.60;99.90
64689;DHT22;62504;46.070;14.492;2024-03-25T09:17:51;13.20;99.90
64689;DHT22;62504;46.070;14.492;2024-03-25T09:20:16;13.30;99.90
64689;DHT22;62504;46.070;14.492;2024-03-25T09:22:46;13.60;99.90
64689;DHT22;62504;46.070;14.492;2024-03-25T09:25:12;13.60;99.90
64689;DHT22;62504;46.070;14.492;2024-03-25T09:27:39;13.10;99.90
64689;DHT22;62504;46.070;14.492;2024-03-25T09:30:05;13.60;99.90
64689;DHT22;62504;46.070;14.492;2024-03-25T09:32:31;13.60;99.90
64689;DHT22;62504;46.070;14.492;2024-03-25T09:34:57;13.30;99.90
64689;DHT22;62504;46.070;14.492;2024-03-25T09:37:23;13.70;99.90
64689;DHT22;62504;46.070;14.492;2024-03-25T09:39:49;13.80;99.90
64689;DHT22;62504;46.070;14.492;2024-03-25T09:42:17;13.60;99.90
64689;DHT22;62504;46.070;14.492;2024-03-25T09:44:44;13.70;99.90
64689;DHT22;62504;46.070;14.492;2024-03-25T09:47:10;13.80;99.90
64689;DHT22;62504;46.070;14.492;2024-03-25T09:49:38;13.70;99.90
64689;DHT22;62504;46.070;14.492;2024-03-25T09:52:06;13.60;99.90
64689;DHT22;62504;46.070;14.492;2024-03-25T09:54:32;13.70;99.90
64689;DHT22;62504;46.070;14.492;2024-03-25T09:56:59;13.80;99.90
64689;DHT22;62504;46.070;14.492;2024-03-25T09:59:26;13.10;99.90
64689;DHT22;62504;46.070;14.492;2024-03-25T10:01:52;13.30;99.90
64689;DHT22;62504;46.070;14.492;2024-03-25T10:04:19;13.30;99.90
64689;DHT22;62504;46.070;14.492;2024-03-25T10:06:45;13.50;99.90
64689;DHT22;62504;46.070;14.492;2024-03-25T10:09:10;13.50;99.90
64689;DHT22;62504;46.070;14.492;2024-03-25T10:11:36;13.50;99.90
64689;DHT22;62504;46.070;14.492;2024-03-25T10:14:02;13.60;99.90
64689;DHT22;62504;46.070;14.492;2024-03-25T10:16:28;13.60;99.90
64689;DHT22;62504;46.070;14.492;2024-03-25T10:18:54;13.40;99.90
64689;DHT22;62504;46.070;14.492;2024-03-25T10:21:20;13.30;99.90
64689;DHT22;62504;46.070;14.492;2024-03-25T10:23:47;13.50;99.90
64689;DHT22;62504;46.070;14.492;2024-03-25T10:26:26;13.30;99.90
64689;DHT22;62504;46.070;14.492;2024-03-25T10:29:05;13.20;99.90
64689;DHT22;62504;46.070;14.492;2024-03-25T10:31:34;13.50;99.90
64689;DHT22;62504;46.070;14.492;2024-03-25T10:34:00;13.50;99.90
64689;DHT22;62504;46.070;14.492;2024-03-25T10:36:26;13.40;99.90
64689;DHT22;62504;46.070;14.492;2024-03-25T10:38:57;13.30;99.90
64689;DHT22;62504;46.070;14.492;2024-03-25T10:41:25;13.30;99.90
64689;DHT22;62504;46.070;14.492;2024-03-25T10:43:53;13.70;99.90
64689;DHT22;62504;46.070;14.492;2024-03-25T10:46:20;13.70;99.90
64689;DHT22;62504;46.070;14.492;2024-03-25T10:49:27;13.70;99.90
64689;DHT22;62504;46.070;14.492;2024-03-25T10:51:55;13.70;99.90
64689;DHT22;62504;46.070;14.492;2024-03-25T10:54:23;13.60;99.90
64689;DHT22;62504;46.070;14.492;2024-03-25T10:56:50;13.90;99.90
64689;DHT22;62504;46.070;14.492;2024-03-25T10:59:18;13.90;99.90
64689;DHT22;62504;46.070;14.492;2024-03-25T11:01:46;13.90;99.90
64689;DHT22;62504;46.070;14.492;2024-03-25T11:04:12;13.90;99.90
64689;DHT22;62504;46.070;14.492;2024-03-25T11:06:37;13.70;97.50
64689;DHT22;62504;46.070;14.492;2024-03-25T11:09:03;13.70;95.40
64689;DHT22;62504;46.070;14.492;2024-03-25T11:11:34;13.70;94.90
64689;DHT22;62504;46.070;14.492;2024-03-25T11:14:03;13.80;96.90
64689;DHT22;62504;46.070;14.492;2024-03-25T11:16:32;13.70;93.70
64689;DHT22;62504;46.070;14.492;2024-03-25T11:19:04;13.70;93.50
64689;DHT22;62504;46.070;14.492;2024-03-25T11:21:32;13.70;91.00
64689;DHT22;62504;46.070;14.492;2024-03-25T11:24:06;13.70;93.90
64689;DHT22;62504;46.070;14.492;2024-03-25T11:26:32;13.60;93.70
64689;DHT22;62504;46.070;14.492;2024-03-25T11:29:00;13.80;92.40
64689;DHT22;62504;46.070;14.492;2024-03-25T11:31:26;13.80;92.00
64689;DHT22;62504;46.070;14.492;2024-03-25T11:33:53;13.80;92.40
64689;DHT22;62504;46.070;14.492;2024-03-25T11:36:18;13.90;92.20
64689;DHT22;62504;46.070;14.492;2024-03-25T11:39:01;13.70;91.90
64689;DHT22;62504;46.070;14.492;2024-03-25T11:41:33;13.40;91.40
64689;DHT22;62504;46.070;14.492;2024-03-25T11:43:59;13.30;91.50
64689;DHT22;62504;46.070;14.492;2024-03-25T11:46:26;13.50;91.20
64689;DHT22;62504;46.070;14.492;2024-03-25T11:48:52;13.70;91.30
64689;DHT22;62504;46.070;14.492;2024-03-25T11:51:18;13.80;91.50
64689;DHT22;62504;46.070;14.492;2024-03-25T11:53:44;13.70;90.60
64689;DHT22;62504;46.070;14.492;2024-03-25T11:56:11;13.80;91.20
64689;DHT22;62504;46.070;14.492;2024-03-25T11:58:40;13.80;90.80
64689;DHT22;62504;46.070;14.492;2024-03-25T12:01:05;13.80;90.40
64689;DHT22;62504;46.070;14.492;2024-03-25T12:03:33;13.90;90.00
64689;DHT22;62504;46.070;14.492;2024-03-25T12:05:59;13.60;88.80
64689;DHT22;62504;46.070;14.492;2024-03-25T12:08:25;13.70;90.30
64689;DHT22;62504;46.070;14.492;2024-03-25T12:10:52;13.90;89.10
64689;DHT22;62504;46.070;14.492;2024-03-25T12:13:38;13.90;88.50
64689;DHT22;62504;46.070;14.492;2024-03-25T12:16:07;13.90;91.50
64689;DHT22;62504;46.070;14.492;2024-03-25T12:18:36;14.00;90.70
64689;DHT22;62504;46.070;14.492;2024-03-25T12:21:04;14.00;88.90
64689;DHT22;62504;46.070;14.492;2024-03-25T12:23:33;14.10;88.30
64689;DHT22;62504;46.070;14.492;2024-03-25T12:26:03;14.20;89.80
64689;DHT22;62504;46.070;14.492;2024-03-25T12:28:31;14.20;87.90
64689;DHT22;62504;46.070;14.492;2024-03-25T12:30:57;14.30;86.20
64689;DHT22;62504;46.070;14.492;2024-03-25T12:33:23;14.20;85.90
64689;DHT22;62504;46.070;14.492;2024-03-25T12:35:50;14.40;90.00
64689;DHT22;62504;46.070;14.492;2024-03-25T12:38:26;14.50;90.40
64689;DHT22;62504;46.070;14.492;2024-03-25T12:41:14;14.60;90.50
64689;DHT22;62504;46.070;14.492;2024-03-25T12:43:43;14.60;90.50
64689;DHT22;62504;46.070;14.492;2024-03-25T12:46:10;14.70;90.00
64689;DHT22;62504;46.070;14.492;2024-03-25T12:48:36;14.70;86.90
64689;DHT22;62504;46.070;14.492;2024-03-25T12:51:02;14.60;85.10
64689;DHT22;62504;46.070;14.492;2024-03-25T12:53:28;14.70;89.20
64689;DHT22;62504;46.070;14.492;2024-03-25T12:55:53;14.80;85.30
64689;DHT22;62504;46.070;14.492;2024-03-25T12:58:19;14.70;83.70
64689;DHT22;62504;46.070;14.492;2024-03-25T13:00:45;14.70;85.20
64689;DHT22;62504;46.070;14.492;2024-03-25T13:03:11;14.80;88.60
64689;DHT22;62504;46.070;14.492;2024-03-25T13:05:37;15.00;88.30
64689;DHT22;62504;46.070;14.492;2024-03-25T13:08:03;15.00;85.70
64689;DHT22;62504;46.070;14.492;2024-03-25T13:10:30;15.00;86.10
64689;DHT22;62504;46.070;14.492;2024-03-25T13:12:56;15.00;86.60
64689;DHT22;62504;46.070;14.492;2024-03-25T13:15:22;15.00;83.40
64689;DHT22;62504;46.070;14.492;2024-03-25T13:17:48;14.90;82.30
64689;DHT22;62504;46.070;14.492;2024-03-25T13:20:14;14.90;82.50
64689;DHT22;62504;46.070;14.492;2024-03-25T13:22:40;14.90;82.00
64689;DHT22;62504;46.070;14.492;2024-03-25T13:25:06;15.00;86.30
64689;DHT22;62504;46.070;14.492;2024-03-25T13:27:32;15.00;83.50
64689;DHT22;62504;46.070;14.492;2024-03-25T13:29:58;15.00;84.30
64689;DHT22;62504;46.070;14.492;2024-03-25T13:32:24;15.10;86.80
64689;DHT22;62504;46.070;14.492;2024-03-25T13:34:50;15.20;86.80
64689;DHT22;62504;46.070;14.492;2024-03-25T13:37:16;15.00;83.40
64689;DHT22;62504;46.070;14.492;2024-03-25T13:39:41;14.80;84.40
64689;DHT22;62504;46.070;14.492;2024-03-25T13:42:07;14.80;85.80
64689;DHT22;62504;46.070;14.492;2024-03-25T13:44:32;14.90;84.30
64689;DHT22;62504;46.070;14.492;2024-03-25T13:46:58;15.00;85.80
64689;DHT22;62504;46.070;14.492;2024-03-25T13:49:24;15.00;84.90
64689;DHT22;62504;46.070;14.492;2024-03-25T13:51:55;15.10;85.40
64689;DHT22;62504;46.070;14.492;2024-03-25T13:54:21;15.20;83.20
64689;DHT22;62504;46.070;14.492;2024-03-25T13:56:47;15.20;80.50
64689;DHT22;62504;46.070;14.492;2024-03-25T13:59:13;15.30;82.10
64689;DHT22;62504;46.070;14.492;2024-03-25T14:01:39;15.30;80.40
64689;DHT22;62504;46.070;14.492;2024-03-25T14:04:06;15.40;78.70
64689;DHT22;62504;46.070;14.492;2024-03-25T14:06:32;15.30;77.10
64689;DHT22;62504;46.070;14.492;2024-03-25T14:09:01;15.30;77.40
64689;DHT22;62504;46.070;14.492;2024-03-25T14:11:30;15.30;77.10
64689;DHT22;62504;46.070;14.492;2024-03-25T14:13:55;15.40;78.50
64689;DHT22;62504;46.070;14.492;2024-03-25T14:16:21;15.40;76.90
64689;DHT22;62504;46.070;14.492;2024-03-25T14:18:47;15.40;76.70
64689;DHT22;62504;46.070;14.492;2024-03-25T14:21:13;15.40;76.80
64689;DHT22;62504;46.070;14.492;2024-03-25T14:23:38;15.40;74.70
64689;DHT22;62504;46.070;14.492;2024-03-25T14:26:09;15.40;74.80
64689;DHT22;62504;46.070;14.492;2024-03-25T14:28:34;15.40;74.00
64689;DHT22;62504;46.070;14.492;2024-03-25T14:31:00;15.40;72.30
64689;DHT22;62504;46.070;14.492;2024-03-25T14:33:26;15.40;75.90
64689;DHT22;62504;46.070;14.492;2024-03-25T14:35:51;15.40;75.70
64689;DHT22;62504;46.070;14.492;2024-03-25T14:38:17;15.30;72.80
64689;DHT22;62504;46.070;14.492;2024-03-25T14:40:42;15.40;72.70
64689;DHT22;62504;46.070;14.492;2024-03-25T14:43:08;15.30;75.50
64689;DHT22;62504;46.070;14.492;2024-03-25T14:45:34;15.40;75.70
64689;DHT22;62504;46.070;14.492;2024-03-25T14:48:00;15.40;74.60
64689;DHT22;62504;46.070;14.492;2024-03-25T14:50:25;15.20;71.20
64689;DHT22;62504;46.070;14.492;2024-03-25T14:52:51;15.20;72.30
64689;DHT22;62504;46.070;14.492;2024-03-25T14:55:16;15.20;72.40
64689;DHT22;62504;46.070;14.492;2024-03-25T14:57:42;15.10;75.00
64689;DHT22;62504;46.070;14.492;2024-03-25T15:00:08;15.20;74.90
64689;DHT22;62504;46.070;14.492;2024-03-25T15:02:34;15.20;76.00
64689;DHT22;62504;46.070;14.492;2024-03-25T15:04:59;15.20;76.80
64689;DHT22;62504;46.070;14.492;2024-03-25T15:07:26;15.10;75.00
64689;DHT22;62504;46.070;14.492;2024-03-25T15:09:52;15.10;74.20
64689;DHT22;62504;46.070;14.492;2024-03-25T15:12:17;15.10;70.30
64689;DHT22;62504;46.070;14.492;2024-03-25T15:14:43;15.00;70.40
64689;DHT22;62504;46.070;14.492;2024-03-25T15:17:09;14.90;70.60
64689;DHT22;62504;46.070;14.492;2024-03-25T15:19:35;14.90;71.30